Time;durP1;ratioP1;P1;durP2;ratioP2;P2;SDS_P1;SDS_P2;PMS_P1;PMS_P2;Temp;Humidity;BMP_temperature;BMP_pressure;BME280_temperature;BME280_humidity;BME280_pressure;Samples;Min_cycle;Max_cycle;Signal;HPM_P1;HPM_P2
2022/06/15 00:00:59;;;;;;;13.20;5.82;;;460.80;2380.80;;;;;;5116985;28;20028;-84
2022/06/15 00:03:28;;;;;;;7.15;5.25;;;436.00;2355.20;;;;;;5098630;28;20023;-84
2022/06/15 00:06:04;;;;;;;8.15;5.28;;;436.10;2355.20;;;;;;5098410;28;20072;-84
2022/06/15 00:08:30;;;;;;;10.77;5.72;;;436.10;2355.20;;;;;;5116669;28;20031;-84
2022/06/15 00:10:55;;;;;;;10.07;5.75;;;436.10;2355.20;;;;;;5098305;28;20377;-83
2022/06/15 00:13:21;;;;;;;6.82;5.32;;;436.00;2355.20;;;;;;5098379;28;20039;-82
2022/06/15 00:15:48;;;;;;;8.80;5.57;;;436.00;2355.20;;;;;;5116312;28;20149;-83
2022/06/15 00:18:14;;;;;;;9.32;5.40;;;435.90;2355.20;;;;;;5098239;28;20024;-83
2022/06/15 00:20:40;;;;;;;10.00;5.80;;;435.90;2355.20;;;;;;5098145;28;20243;-83
2022/06/15 00:23:06;;;;;;;10.27;5.97;;;435.90;2355.20;;;;;;5097915;28;20035;-83
2022/06/15 00:25:31;;;;;;;8.65;5.28;;;435.60;2355.20;;;;;;5098202;28;20066;-83
2022/06/15 00:27:57;;;;;;;7.65;4.93;;;435.60;2355.20;;;;;;5098007;28;20469;-83
2022/06/15 00:30:24;;;;;;;12.48;5.13;;;435.70;2355.20;;;;;;5097770;28;20072;-83
2022/06/15 00:32:50;;;;;;;8.30;5.57;;;435.70;2355.20;;;;;;5098131;28;20441;-83
2022/06/15 00:35:17;;;;;;;9.07;5.32;;;435.70;2355.20;;;;;;5097845;28;20054;-83
2022/06/15 00:37:43;;;;;;;10.55;5.03;;;435.60;2355.20;;;;;;5116072;28;20024;-83
2022/06/15 00:40:10;;;;;;;8.20;5.80;;;435.60;2355.20;;;;;;5097388;28;20034;-84
2022/06/15 00:42:35;;;;;;;12.38;5.35;;;435.30;2355.20;;;;;;5097654;28;20028;-84
2022/06/15 00:45:02;;;;;;;12.05;5.70;;;435.40;2355.20;;;;;;5097589;28;20042;-84
2022/06/15 00:47:35;;;;;;;10.63;4.90;;;435.30;2355.20;;;;;;5097670;28;20027;-83
2022/06/15 00:50:16;;;;;;;8.85;5.47;;;435.50;2355.20;;;;;;5115951;28;20385;-83
2022/06/15 00:53:07;;;;;;;9.50;5.03;;;435.40;2355.20;;;;;;5097209;28;20469;-83
2022/06/15 00:55:34;;;;;;;8.95;5.10;;;435.30;2355.20;;;;;;5096856;28;20138;-82
2022/06/15 00:58:07;;;;;;;8.90;5.60;;;410.50;2355.20;;;;;;5097116;28;20023;-82
2022/06/15 01:00:34;;;;;;;8.93;5.45;;;410.40;2355.20;;;;;;5097407;28;20023;-84
2022/06/15 01:03:00;;;;;;;8.43;5.25;;;435.20;2355.20;;;;;;5097595;28;20059;-84
2022/06/15 01:05:34;;;;;;;8.20;5.05;;;435.30;2355.20;;;;;;5097316;28;20062;-83
2022/06/15 01:08:11;;;;;;;7.75;5.15;;;410.50;2355.20;;;;;;5097486;28;20047;-84
2022/06/15 01:11:34;;;;;;;9.55;5.53;;;410.30;2355.20;;;;;;5097382;28;20038;-83
2022/06/15 01:14:21;;;;;;;8.77;4.90;;;410.30;2355.20;;;;;;4995918;28;20034;-83
2022/06/15 01:16:52;;;;;;;8.77;5.47;;;410.20;2355.20;;;;;;4996397;28;20066;-83
2022/06/15 01:19:40;;;;;;;8.75;5.00;;;410.30;2355.20;;;;;;5061501;28;20035;-84
2022/06/15 01:22:06;;;;;;;11.18;5.30;;;410.30;2355.20;;;;;;5097031;28;20525;-82
2022/06/15 01:24:56;;;;;;;9.40;5.68;;;410.30;2355.20;;;;;;5097047;28;20027;-82
2022/06/15 01:27:34;;;;;;;7.40;5.57;;;410.30;2355.20;;;;;;5096870;28;20046;-82
2022/06/15 01:30:11;;;;;;;9.88;5.13;;;410.20;2355.20;;;;;;5096970;28;20031;-83
2022/06/15 01:32:51;;;;;;;12.85;5.82;;;410.20;2355.20;;;;;;5097015;28;20028;-84
2022/06/15 01:35:23;;;;;;;8.23;5.35;;;410.20;2355.20;;;;;;5096832;28;20034;-82
2022/06/15 01:37:58;;;;;;;9.38;5.50;;;410.20;2355.20;;;;;;5097011;28;20019;-83
2022/06/15 01:40:42;;;;;;;11.38;5.47;;;410.20;2355.20;;;;;;5096890;28;20118;-82
2022/06/15 01:43:15;;;;;;;8.27;5.35;;;410.20;2355.20;;;;;;5096704;28;20110;-83
2022/06/15 01:45:42;;;;;;;9.02;5.30;;;410.00;2355.20;;;;;;5096732;28;20182;-82
2022/06/15 01:48:11;;;;;;;11.57;5.10;;;410.00;2355.20;;;;;;5096391;28;20399;-82
2022/06/15 01:50:48;;;;;;;8.30;5.28;;;410.10;2355.20;;;;;;5096666;28;20114;-83
2022/06/15 01:53:32;;;;;;;7.35;5.18;;;410.00;2355.20;;;;;;5095731;28;20084;-83
2022/06/15 01:56:16;;;;;;;12.32;6.18;;;410.00;2355.20;;;;;;5096489;28;20066;-83
2022/06/15 01:58:44;;;;;;;7.85;5.03;;;410.00;2355.20;;;;;;5096492;28;20110;-83
2022/06/15 02:01:26;;;;;;;7.88;4.90;;;410.00;2355.20;;;;;;5096199;28;20710;-82
2022/06/15 02:04:05;;;;;;;7.45;5.05;;;410.00;2355.20;;;;;;5096336;28;20028;-83
2022/06/15 02:06:36;;;;;;;10.65;5.65;;;410.00;2355.20;;;;;;5096397;28;20146;-83
2022/06/15 02:09:08;;;;;;;10.60;5.38;;;410.00;2355.20;;;;;;5096052;28;20027;-83
2022/06/15 02:11:38;;;;;;;9.63;4.88;;;410.00;2355.20;;;;;;5096190;28;20038;-82
2022/06/15 02:14:25;;;;;;;11.75;4.90;;;410.00;2355.20;;;;;;5095976;28;20031;-79
2022/06/15 02:16:53;;;;;;;7.65;5.68;;;410.00;2355.20;;;;;;5095389;28;20024;-79
2022/06/15 02:19:31;;;;;;;9.70;5.05;;;409.90;2355.20;;;;;;5114049;28;20372;-79
2022/06/15 02:21:58;;;;;;;8.75;5.15;;;409.90;2355.20;;;;;;5095616;28;20098;-80
2022/06/15 02:24:25;;;;;;;9.95;5.10;;;409.80;2355.20;;;;;;5095767;28;20026;-79
2022/06/15 02:26:51;;;;;;;9.77;5.15;;;410.00;2355.20;;;;;;5095712;28;20472;-79
2022/06/15 02:29:22;;;;;;;9.57;5.30;;;410.00;2355.20;;;;;;5095426;28;20088;-80
2022/06/15 02:31:48;;;;;;;9.15;5.18;;;409.90;2355.20;;;;;;5095747;28;20119;-81
2022/06/15 02:34:15;;;;;;;8.48;4.93;;;410.00;2355.20;;;;;;5095679;28;20058;-80
2022/06/15 02:36:41;;;;;;;6.10;4.70;;;409.80;2355.20;;;;;;5095426;28;20030;-81
2022/06/15 02:39:08;;;;;;;6.90;4.70;;;410.00;2355.20;;;;;;5095524;28;20023;-80
2022/06/15 02:41:34;;;;;;;10.27;4.88;;;410.00;2355.20;;;;;;5095613;28;20027;-80
2022/06/15 02:44:02;;;;;;;7.13;4.53;;;409.80;2355.20;;;;;;5113695;28;20019;-80
2022/06/15 02:46:31;;;;;;;8.85;5.05;;;409.80;2355.20;;;;;;5095594;28;20056;-80
2022/06/15 02:48:58;;;;;;;7.45;4.68;;;409.80;2355.20;;;;;;5113949;28;20019;-80
2022/06/15 02:51:40;;;;;;;12.35;4.72;;;384.90;2329.60;;;;;;5095179;28;20024;-80
2022/06/15 02:54:16;;;;;;;9.43;5.18;;;409.80;2355.20;;;;;;5095228;28;20055;-80
2022/06/15 02:56:43;;;;;;;7.55;5.18;;;409.70;2355.20;;;;;;5095177;28;20028;-81
2022/06/15 02:59:09;;;;;;;8.75;4.88;;;409.70;2355.20;;;;;;5095274;28;20106;-80
2022/06/15 03:01:35;;;;;;;9.43;4.70;;;409.70;2355.20;;;;;;5095376;28;20115;-81
2022/06/15 03:04:01;;;;;;;8.68;5.15;;;409.70;2355.20;;;;;;5097336;28;20058;-80
2022/06/15 03:06:27;;;;;;;9.80;4.95;;;409.70;2355.20;;;;;;5099360;28;20045;-80
2022/06/15 03:08:57;;;;;;;8.88;4.57;;;409.70;2355.20;;;;;;5099352;28;20028;-80
2022/06/15 03:11:24;;;;;;;7.10;4.82;;;409.70;2355.20;;;;;;5099080;28;20118;-80
2022/06/15 03:13:51;;;;;;;11.10;4.93;;;409.70;2355.20;;;;;;5101548;28;20028;-79
2022/06/15 03:16:18;;;;;;;8.75;5.18;;;409.70;2355.20;;;;;;5103222;28;20076;-79
2022/06/15 03:18:43;;;;;;;7.63;4.75;;;409.60;2355.20;;;;;;5102501;28;20532;-81
2022/06/15 03:21:09;;;;;;;7.50;4.70;;;384.90;2329.60;;;;;;5099028;28;20032;-80
2022/06/15 03:23:35;;;;;;;8.00;4.97;;;384.80;2329.60;;;;;;5098646;28;20062;-80
2022/06/15 03:26:03;;;;;;;8.18;4.85;;;384.90;2329.60;;;;;;5098755;28;20047;-80
2022/06/15 03:28:29;;;;;;;11.25;5.00;;;409.60;2355.20;;;;;;5098950;28;20426;-80
2022/06/15 03:30:55;;;;;;;10.98;5.07;;;409.70;2355.20;;;;;;5098829;28;20031;-80
2022/06/15 03:33:21;;;;;;;8.93;4.63;;;409.70;2355.20;;;;;;5098468;28;20036;-80
2022/06/15 03:35:48;;;;;;;12.15;5.22;;;409.60;2355.20;;;;;;5098663;28;20028;-80
2022/06/15 03:38:13;;;;;;;7.97;5.45;;;384.90;2329.60;;;;;;5098714;28;20083;-80
2022/06/15 03:40:43;;;;;;;11.35;5.30;;;384.90;2329.60;;;;;;5098205;28;20122;-81
2022/06/15 03:43:09;;;;;;;16.63;5.00;;;409.60;2355.20;;;;;;5098558;28;20038;-80
2022/06/15 03:45:35;;;;;;;8.23;4.82;;;384.90;2329.60;;;;;;5098461;28;20057;-80
2022/06/15 03:48:02;;;;;;;6.18;4.70;;;384.90;2329.60;;;;;;5098242;28;20076;-80
2022/06/15 03:50:31;;;;;;;11.50;4.78;;;384.90;2329.60;;;;;;5098520;28;20028;-80
2022/06/15 03:52:58;;;;;;;7.78;4.65;;;409.70;2355.20;;;;;;5097953;28;20492;-80
2022/06/15 03:55:23;;;;;;;7.90;4.88;;;409.60;2355.20;;;;;;5097809;28;20039;-81
2022/06/15 03:57:50;;;;;;;8.00;5.47;;;409.70;2355.20;;;;;;5098152;28;20019;-80
2022/06/15 04:00:19;;;;;;;9.32;4.63;;;409.70;2355.20;;;;;;5116128;28;20106;-81
2022/06/15 04:02:45;;;;;;;7.65;4.85;;;409.60;2355.20;;;;;;5098125;28;20491;-81
2022/06/15 04:05:23;;;;;;;8.95;5.30;;;409.70;2355.20;;;;;;5098124;28;20110;-81
2022/06/15 04:10:35;;;;;;;9.85;4.07;;;409.70;2355.20;;;;;;5116440;28;20038;-80
2022/06/15 04:13:01;;;;;;;8.00;4.55;;;409.70;2355.20;;;;;;5097947;28;20040;-80
2022/06/15 04:15:27;;;;;;;10.45;4.68;;;409.70;2355.20;;;;;;5096620;28;20354;-81
2022/06/15 04:17:53;;;;;;;9.68;5.10;;;409.80;2355.20;;;;;;5097934;28;20073;-80
2022/06/15 04:20:33;;;;;;;11.25;4.68;;;409.80;2355.20;;;;;;5116471;28;20415;-80
2022/06/15 04:23:09;;;;;;;7.20;4.68;;;409.80;2355.20;;;;;;5097635;28;20028;-81
2022/06/15 04:26:02;;;;;;;8.23;4.78;;;409.90;2355.20;;;;;;5097818;28;20024;-80
2022/06/15 04:28:29;;;;;;;8.95;5.07;;;409.80;2355.20;;;;;;5093304;28;20088;-80
2022/06/15 04:30:55;;;;;;;8.02;4.70;;;409.70;2355.20;;;;;;5097629;28;20081;-80
2022/06/15 04:33:23;;;;;;;8.32;4.32;;;409.90;2355.20;;;;;;5097517;28;20035;-80
2022/06/15 04:35:49;;;;;;;11.13;5.15;;;409.90;2355.20;;;;;;5097311;28;20422;-80
2022/06/15 04:38:15;;;;;;;6.13;4.20;;;410.00;2355.20;;;;;;5115621;28;20024;-80
2022/06/15 04:40:41;;;;;;;11.20;5.20;;;410.00;2355.20;;;;;;5097437;28;20028;-80
2022/06/15 04:43:08;;;;;;;11.52;5.05;;;410.00;2355.20;;;;;;5097177;28;20032;-80
2022/06/15 04:45:35;;;;;;;9.13;5.75;;;409.80;2355.20;;;;;;5097367;28;20026;-80
2022/06/15 04:48:01;;;;;;;9.98;5.05;;;409.80;2355.20;;;;;;5097332;28;20024;-80
2022/06/15 04:50:28;;;;;;;9.02;4.85;;;409.80;2355.20;;;;;;5096891;28;20028;-79
2022/06/15 04:52:54;;;;;;;8.23;4.35;;;409.80;2355.20;;;;;;5097172;28;20123;-80
2022/06/15 04:55:22;;;;;;;11.80;4.93;;;409.80;2355.20;;;;;;5096697;28;20553;-80
2022/06/15 04:57:54;;;;;;;12.32;4.72;;;409.90;2355.20;;;;;;5096855;28;20077;-80
2022/06/15 05:00:21;;;;;;;9.23;4.60;;;409.70;2355.20;;;;;;5097240;28;20027;-80
2022/06/15 05:02:47;;;;;;;9.38;4.43;;;409.90;2355.20;;;;;;5097051;28;20034;-79
2022/06/15 05:05:13;;;;;;;8.68;4.38;;;410.00;2355.20;;;;;;5096838;28;20118;-80
2022/06/15 05:07:40;;;;;;;7.88;4.82;;;410.00;2355.20;;;;;;5096983;28;20023;-80
2022/06/15 05:10:14;;;;;;;7.72;4.47;;;410.30;2355.20;;;;;;5114888;28;20020;-80
2022/06/15 05:12:40;;;;;;;8.45;4.32;;;410.50;2355.20;;;;;;5096948;28;20548;-79
2022/06/15 05:15:06;;;;;;;6.90;5.00;;;410.50;2355.20;;;;;;5096873;28;20030;-81
2022/06/15 05:17:32;;;;;;;7.30;4.85;;;435.30;2355.20;;;;;;5096263;28;20031;-80
2022/06/15 05:19:58;;;;;;;10.05;4.93;;;435.50;2355.20;;;;;;5096689;28;20020;-81
2022/06/15 05:22:24;;;;;;;10.60;5.15;;;435.60;2355.20;;;;;;5096693;28;20035;-81
2022/06/15 05:24:49;;;;;;;10.93;4.93;;;435.80;2355.20;;;;;;5096429;28;20110;-80
2022/06/15 05:27:15;;;;;;;9.60;4.30;;;435.90;2355.20;;;;;;5096396;28;20020;-81
2022/06/15 05:29:41;;;;;;;11.75;5.10;;;435.90;2355.20;;;;;;5115164;28;20495;-80
2022/06/15 05:32:08;;;;;;;12.88;5.38;;;436.00;2355.20;;;;;;5096260;28;20061;-80
2022/06/15 05:34:35;;;;;;;13.48;5.25;;;436.00;2355.20;;;;;;5114673;28;20023;-80
2022/06/15 05:37:01;;;;;;;16.05;5.10;;;436.10;2355.20;;;;;;5096412;28;20081;-80
2022/06/15 05:39:27;;;;;;;12.00;4.90;;;436.10;2355.20;;;;;;5114586;28;20079;-80
2022/06/15 05:41:53;;;;;;;15.07;6.45;;;460.90;2380.80;;;;;;5096378;28;20039;-80
2022/06/15 05:47:01;;;;;;;11.50;5.15;;;461.00;2380.80;;;;;;5114357;28;20461;-81
2022/06/15 05:49:28;;;;;;;6.53;4.40;;;461.00;2380.80;;;;;;5096278;28;20032;-80
2022/06/15 05:51:54;;;;;;;9.45;4.68;;;461.10;2380.80;;;;;;5095857;28;20039;-80
2022/06/15 05:54:20;;;;;;;9.60;4.55;;;461.20;2380.80;;;;;;5095747;28;20044;-80
2022/06/15 05:56:46;;;;;;;10.82;4.95;;;461.10;2380.80;;;;;;5096190;28;20055;-80
2022/06/15 05:59:12;;;;;;;8.95;4.97;;;461.40;2380.80;;;;;;5095847;28;20524;-80
2022/06/15 06:01:38;;;;;;;12.85;6.30;;;461.60;2380.80;;;;;;5095929;28;20080;-80
2022/06/15 06:04:05;;;;;;;13.57;5.22;;;461.70;2380.80;;;;;;5096060;28;20023;-80
2022/06/15 06:06:32;;;;;;;9.35;5.28;;;461.60;2380.80;;;;;;5095708;28;20023;-80
2022/06/15 06:08:58;;;;;;;14.43;6.35;;;461.70;2380.80;;;;;;5096051;28;20051;-80
2022/06/15 06:11:25;;;;;;;12.48;7.75;;;486.40;2380.80;;;;;;5095731;28;20096;-80
2022/06/15 06:13:52;;;;;;;11.43;6.30;;;486.60;2380.80;;;;;;5095648;28;20114;-80
2022/06/15 06:16:18;;;;;;;13.52;6.53;;;486.80;2380.80;;;;;;5114120;28;20020;-80
2022/06/15 06:18:44;;;;;;;11.38;5.43;;;487.00;2380.80;;;;;;5095945;28;20115;-80
2022/06/15 06:21:10;;;;;;;10.98;5.72;;;487.20;2380.80;;;;;;5095663;28;20020;-80
2022/06/15 06:23:39;;;;;;;12.93;5.55;;;487.30;2380.80;;;;;;5095858;28;20028;-80
2022/06/15 06:26:06;;;;;;;11.68;6.15;;;512.10;2380.80;;;;;;5095586;28;20461;-80
2022/06/15 06:28:34;;;;;;;8.43;4.00;;;512.30;2380.80;;;;;;5095455;28;20023;-80
2022/06/15 06:31:02;;;;;;;9.27;4.35;;;512.40;2380.80;;;;;;5095648;28;20030;-80
2022/06/15 06:33:33;;;;;;;7.32;3.40;;;512.60;2380.80;;;;;;5095695;28;20035;-80
2022/06/15 06:36:03;;;;;;;6.43;3.35;;;512.80;2380.80;;;;;;5095464;28;20118;-80
2022/06/15 06:38:28;;;;;;;5.93;2.88;;;512.80;2380.80;;;;;;5097263;28;20354;-81
2022/06/15 06:40:56;;;;;;;8.07;3.70;;;512.90;2380.80;;;;;;5117761;28;20035;-79
2022/06/15 06:43:22;;;;;;;9.55;3.60;;;512.70;2380.80;;;;;;5099719;28;20081;-79
2022/06/15 06:45:49;;;;;;;7.93;4.18;;;537.70;2406.40;;;;;;5099706;28;20388;-80
2022/06/15 06:48:15;;;;;;;6.13;2.80;;;537.90;2406.40;;;;;;5099374;28;20024;-80
2022/06/15 06:50:42;;;;;;;7.03;2.88;;;537.90;2406.40;;;;;;5099530;28;20023;-80
2022/06/15 06:53:10;;;;;;;5.68;2.88;;;537.90;2406.40;;;;;;5099438;28;20028;-80
2022/06/15 06:55:35;;;;;;;6.57;3.20;;;538.10;2406.40;;;;;;5098712;28;20097;-79
2022/06/15 06:58:02;;;;;;;6.43;3.00;;;538.20;2406.40;;;;;;5099474;28;20023;-79
2022/06/15 07:00:30;;;;;;;6.55;2.88;;;538.40;2406.40;;;;;;5099358;28;20032;-79
2022/06/15 07:02:58;;;;;;;7.18;3.17;;;538.40;2380.80;;;;;;5099135;28;20023;-79
2022/06/15 07:05:24;;;;;;;5.80;3.15;;;538.50;2406.40;;;;;;5099623;28;20035;-80
2022/06/15 07:07:50;;;;;;;9.13;3.65;;;538.50;2355.20;;;;;;5099306;28;20023;-79
2022/06/15 07:10:16;;;;;;;6.20;2.90;;;563.20;2380.80;;;;;;5098863;28;20026;-79
2022/06/15 07:12:42;;;;;;;6.88;2.72;;;563.30;2380.80;;;;;;5099023;28;20035;-80
2022/06/15 07:15:11;;;;;;;6.85;3.08;;;563.50;2406.40;;;;;;5099251;28;20039;-79
2022/06/15 07:17:38;;;;;;;5.75;2.72;;;563.60;2406.40;;;;;;5117129;28;20028;-80
2022/06/15 07:20:04;;;;;;;7.93;2.67;;;563.60;2304.00;;;;;;5099024;28;20119;-80
2022/06/15 07:22:31;;;;;;;6.60;3.22;;;563.70;2329.60;;;;;;5099016;28;20028;-80
2022/06/15 07:24:57;;;;;;;5.57;2.97;;;563.80;2304.00;;;;;;5098614;28;20024;-79
2022/06/15 07:27:24;;;;;;;8.93;3.10;;;563.90;2304.00;;;;;;5098703;28;20487;-80
2022/06/15 07:29:50;;;;;;;7.45;3.20;;;564.00;2278.40;;;;;;5098766;28;20043;-79
2022/06/15 07:32:17;;;;;;;6.75;3.13;;;564.10;2278.40;;;;;;5098654;28;20039;-79
2022/06/15 07:34:44;;;;;;;8.77;3.08;;;588.80;2278.40;;;;;;5098650;28;20028;-79
2022/06/15 07:37:10;;;;;;;4.40;2.30;;;588.80;2278.40;;;;;;5098384;28;20030;-79
2022/06/15 07:39:37;;;;;;;6.38;2.83;;;588.90;2252.80;;;;;;5098431;28;20068;-79
2022/06/15 07:42:06;;;;;;;5.43;3.45;;;589.10;2201.60;;;;;;5116902;28;20492;-79
2022/06/15 07:44:34;;;;;;;8.15;3.00;;;589.00;2227.20;;;;;;5116442;28;20073;-79
2022/06/15 07:49:54;;;;;;;6.32;2.83;;;589.50;2201.60;;;;;;5116638;28;20070;-80
2022/06/15 07:52:22;;;;;;;7.68;2.67;;;589.60;2176.00;;;;;;5098164;28;20039;-80
2022/06/15 07:54:49;;;;;;;5.20;2.97;;;589.60;2150.40;;;;;;5098278;28;20058;-80
2022/06/15 07:57:15;;;;;;;6.38;3.03;;;589.70;2150.40;;;;;;5098322;28;20020;-79
2022/06/15 07:59:41;;;;;;;7.13;2.50;;;614.40;2176.00;;;;;;5098734;28;20030;-79
2022/06/15 08:02:07;;;;;;;5.70;2.80;;;614.50;2099.20;;;;;;5117454;28;20066;-78
2022/06/15 08:04:33;;;;;;;7.70;2.42;;;614.80;2124.80;;;;;;5109642;28;20091;-77
2022/06/15 08:06:59;;;;;;;5.68;2.53;;;614.90;2099.20;;;;;;5118093;28;20024;-76
2022/06/15 08:09:26;;;;;;;6.88;2.78;;;614.80;2073.60;;;;;;5110820;28;20063;-76
2022/06/15 08:14:39;;;;;;;7.85;3.75;;;614.80;2048.00;;;;;;5128855;28;20038;-79
2022/06/15 08:17:07;;;;;;;6.97;2.75;;;614.90;2099.20;;;;;;5099687;28;20047;-80
2022/06/15 08:19:39;;;;;;;4.78;2.30;;;615.30;2073.60;;;;;;5101876;28;20066;-78
2022/06/15 08:22:07;;;;;;;6.80;2.70;;;640.10;1971.20;;;;;;5131192;28;20126;-79
2022/06/15 08:24:33;;;;;;;6.78;2.50;;;640.00;1996.80;;;;;;5115957;28;20020;-79
2022/06/15 08:27:00;;;;;;;7.90;3.10;;;640.20;1945.60;;;;;;5112247;28;20380;-80
2022/06/15 08:29:26;;;;;;;5.28;2.70;;;640.30;1945.60;;;;;;5101954;28;20380;-83
2022/06/15 08:31:56;;;;;;;5.20;2.15;;;640.00;1792.00;;;;;;5099668;28;20036;-82
2022/06/15 08:34:26;;;;;;;6.95;2.60;;;615.10;1945.60;;;;;;5116381;28;20078;-82
2022/06/15 08:36:52;;;;;;;7.63;3.05;;;640.00;1868.80;;;;;;5098157;28;20507;-83
2022/06/15 08:39:18;;;;;;;6.60;2.70;;;640.00;1868.80;;;;;;5100618;27;20019;-78
2022/06/15 08:42:26;;;;;;;5.28;2.50;;;640.60;1920.00;;;;;;5112916;27;20031;-77
2022/06/15 08:45:26;;;;;;;7.85;2.63;;;640.50;1843.20;;;;;;5105700;27;20032;-78
2022/06/15 08:48:19;;;;;;;7.10;3.53;;;640.20;1945.60;;;;;;5108000;27;20471;-77
2022/06/15 08:50:56;;;;;;;9.73;3.05;;;640.40;1817.60;;;;;;5101014;27;20066;-77
2022/06/15 08:53:24;;;;;;;6.28;2.50;;;640.60;1766.40;;;;;;5107861;27;20050;-79
2022/06/15 08:56:00;;;;;;;6.57;2.85;;;640.90;1766.40;;;;;;5125622;27;20024;-79
2022/06/15 08:58:58;;;;;;;6.90;3.40;;;666.00;1740.80;;;;;;5101998;28;20080;-80
2022/06/15 09:01:40;;;;;;;6.50;2.60;;;666.10;1766.40;;;;;;5095000;28;20027;-78
2022/06/15 09:04:27;;;;;;;6.45;2.30;;;666.40;1740.80;;;;;;5115549;28;20353;-77
2022/06/15 09:07:04;;;;;;;10.10;2.80;;;666.40;1689.60;;;;;;5100086;28;20455;-77
2022/06/15 09:09:49;;;;;;;6.45;2.67;;;691.20;1740.80;;;;;;5114235;27;20112;-80
2022/06/15 09:12:55;;;;;;;7.38;2.97;;;691.40;1689.60;;;;;;5116051;27;20058;-79
2022/06/15 09:15:59;;;;;;;8.23;2.97;;;691.60;1664.00;;;;;;5101643;27;20138;-81
2022/06/15 09:18:50;;;;;;;6.78;2.67;;;691.90;1664.00;;;;;;5117015;27;20019;-80
2022/06/15 09:21:25;;;;;;;5.27;3.00;;;692.00;1638.40;;;;;;5133921;27;20102;-77
2022/06/15 09:24:17;;;;;;;7.97;3.40;;;692.10;1638.40;;;;;;5116469;27;20031;-78
2022/06/15 09:26:53;;;;;;;7.22;3.13;;;717.10;1638.40;;;;;;5116984;27;20031;-78
2022/06/15 09:29:34;;;;;;;5.15;2.42;;;717.10;1664.00;;;;;;5116937;27;20035;-81
2022/06/15 09:32:06;;;;;;;3.80;2.20;;;716.90;1638.40;;;;;;5114674;27;20039;-80
2022/06/15 09:34:37;;;;;;;6.50;2.38;;;716.80;1612.80;;;;;;5100305;27;20088;-79
2022/06/15 09:37:10;;;;;;;12.88;3.92;;;716.90;1638.40;;;;;;5135080;27;20457;-80
2022/06/15 09:39:37;;;;;;;5.60;2.58;;;716.80;1638.40;;;;;;5116713;27;20032;-81
2022/06/15 09:42:03;;;;;;;5.65;2.40;;;716.80;1587.20;;;;;;5116694;27;20098;-81
2022/06/15 09:44:55;;;;;;;6.15;2.30;;;717.10;1638.40;;;;;;5134855;27;20575;-79
2022/06/15 09:47:46;;;;;;;4.47;2.30;;;717.10;1638.40;;;;;;5116489;27;20029;-77
2022/06/15 09:50:33;;;;;;;4.63;2.13;;;717.00;1587.20;;;;;;5116292;27;20024;-78
2022/06/15 09:53:11;;;;;;;5.05;2.20;;;717.10;1561.60;;;;;;5116244;27;20027;-79
2022/06/15 09:55:51;;;;;;;13.88;2.35;;;716.90;1561.60;;;;;;5135140;27;20104;-78
2022/06/15 09:58:22;;;;;;;4.97;2.10;;;716.90;1587.20;;;;;;5115798;27;20023;-79
2022/06/15 10:00:49;;;;;;;5.65;2.50;;;717.10;1561.60;;;;;;5116428;27;20023;-78
2022/06/15 10:03:38;;;;;;;7.80;3.10;;;717.00;1561.60;;;;;;5114099;27;20023;-80
2022/06/15 10:06:18;;;;;;;10.98;2.47;;;717.00;1536.00;;;;;;5115964;27;20031;-77
2022/06/15 10:08:45;;;;;;;4.97;2.33;;;717.00;1561.60;;;;;;5115983;27;20093;-78
2022/06/15 10:11:16;;;;;;;4.93;2.33;;;716.90;1561.60;;;;;;5134071;27;20046;-77
2022/06/15 10:13:43;;;;;;;9.40;2.53;;;717.10;1536.00;;;;;;5115219;27;20043;-76
2022/06/15 10:16:15;;;;;;;6.68;2.33;;;692.10;1484.80;;;;;;5134529;27;20092;-78
2022/06/15 10:18:51;;;;;;;9.32;2.92;;;692.10;1484.80;;;;;;5133992;28;20024;-77
2022/06/15 10:21:25;;;;;;;6.32;2.25;;;716.80;1587.20;;;;;;5116254;28;20073;-77
2022/06/15 10:23:57;;;;;;;5.50;2.53;;;717.20;1536.00;;;;;;5116142;28;20023;-78
2022/06/15 10:26:32;;;;;;;6.18;2.28;;;717.50;1536.00;;;;;;5115811;28;20075;-78
2022/06/15 10:29:05;;;;;;;4.97;2.40;;;717.70;1484.80;;;;;;5116037;28;20376;-79
2022/06/15 10:31:34;;;;;;;7.35;2.35;;;742.50;1510.40;;;;;;5116163;28;20027;-80
2022/06/15 10:34:20;;;;;;;6.22;2.40;;;742.40;1484.80;;;;;;5134578;28;20067;-80
2022/06/15 10:36:53;;;;;;;7.55;2.13;;;742.40;1510.40;;;;;;5116197;28;20098;-80
2022/06/15 10:39:25;;;;;;;5.45;2.40;;;742.60;1536.00;;;;;;5123614;28;20034;-80
2022/06/15 10:41:51;;;;;;;;;;;742.40;1484.80;;;;;;5096100;28;20385;-80
2022/06/15 10:44:40;;;;;;;8.55;2.60;;;742.40;1484.80;;;;;;5095596;28;20065;-81
2022/06/15 10:47:28;;;;;;;5.88;1.88;;;717.50;1484.80;;;;;;5095645;28;20019;-81
2022/06/15 10:49:59;;;;;;;6.25;2.30;;;717.40;1484.80;;;;;;5095545;28;20518;-79
2022/06/15 10:52:57;;;;;;;5.28;2.35;;;742.40;1510.40;;;;;;5095711;28;20028;-80
2022/06/15 11:04:20;;;;;;;8.88;6.05;;;743.10;1510.40;;;;;;5113406;28;20031;-81
2022/06/15 11:07:04;;;;;;;9.05;6.30;;;768.10;1484.80;;;;;;5095130;28;20379;-81
2022/06/15 11:09:38;;;;;;;8.38;4.68;;;768.30;1484.80;;;;;;5095489;28;20393;-81
2022/06/15 11:12:36;;;;;;;8.38;4.40;;;768.40;1459.20;;;;;;5095373;28;20032;-80
2022/06/15 11:15:14;;;;;;;4.03;2.25;;;768.60;1433.60;;;;;;5077811;28;20557;-81
2022/06/15 11:18:03;;;;;;;8.35;5.40;;;768.10;1433.60;;;;;;5094869;28;20084;-80
2022/06/15 11:20:50;;;;;;;7.22;2.85;;;768.40;1484.80;;;;;;5095345;28;20031;-79
2022/06/15 11:23:19;;;;;;;5.45;2.45;;;768.80;1484.80;;;;;;5095507;28;20138;-81
2022/06/15 11:25:51;;;;;;;5.15;2.30;;;768.30;1433.60;;;;;;5101531;27;20050;-81
2022/06/15 11:28:26;;;;;;;5.38;2.78;;;768.50;1459.20;;;;;;5118877;27;20035;-82
2022/06/15 11:30:59;;;;;;;7.10;2.10;;;768.80;1459.20;;;;;;5119088;27;20118;-82
2022/06/15 11:33:41;;;;;;;5.68;2.22;;;793.90;1459.20;;;;;;5119381;27;20468;-82
2022/06/15 11:36:34;;;;;;;6.28;2.40;;;768.70;1433.60;;;;;;5119450;27;20062;-83
2022/06/15 11:39:12;;;;;;;4.85;2.05;;;768.50;1433.60;;;;;;5119237;27;20028;-83
2022/06/15 11:41:54;;;;;;;12.13;2.85;;;768.90;1408.00;;;;;;5119446;27;20034;-84
2022/06/15 11:44:27;;;;;;;4.28;2.22;;;768.40;1408.00;;;;;;5137759;27;20015;-82
2022/06/15 11:47:27;;;;;;;5.35;2.55;;;793.60;1459.20;;;;;;5119051;27;20117;-81
2022/06/15 11:50:29;;;;;;;4.82;2.40;;;793.70;1459.20;;;;;;5118936;27;20114;-82
2022/06/15 11:53:18;;;;;;;3.58;1.85;;;768.90;1408.00;;;;;;5130369;27;20039;-83
2022/06/15 11:55:45;;;;;;;6.13;2.00;;;768.60;1408.00;;;;;;5074380;28;20047;-79
2022/06/15 11:58:32;;;;;;;5.85;3.97;;;768.40;1408.00;;;;;;5114817;28;20023;-80
2022/06/15 12:01:10;;;;;;;3.88;2.20;;;768.50;1459.20;;;;;;5115228;28;20024;-80
2022/06/15 12:03:50;;;;;;;5.75;3.67;;;768.60;1433.60;;;;;;5115034;28;20028;-78
2022/06/15 12:06:19;;;;;;;5.28;2.53;;;768.90;1408.00;;;;;;5115390;28;20092;-80
2022/06/15 12:09:13;;;;;;;4.95;2.05;;;768.40;1433.60;;;;;;5115119;28;20089;-81
2022/06/15 12:14:55;;;;;;;5.63;2.45;;;768.80;1459.20;;;;;;5116155;28;20384;-80
2022/06/15 12:17:35;;;;;;;4.95;2.63;;;793.90;1459.20;;;;;;5114708;28;20019;-79
2022/06/15 12:20:07;;;;;;;4.25;2.30;;;;;;;;;;5115185;28;20046;-79
2022/06/15 12:22:39;;;;;;;4.65;2.20;;;;;;;;;;5115122;28;20461;-78
2022/06/15 12:25:14;;;;;;;;;;;794.40;1459.20;;;;;;5114994;28;20111;-77
2022/06/15 12:27:46;;;;;;;5.55;2.60;;;;;;;;;;5114407;28;19904;-79
2022/06/15 12:30:19;;;;;;;6.80;2.42;;;793.60;1459.20;;;;;;5115751;28;20201;-78
2022/06/15 12:33:02;;;;;;;3.75;1.80;;;793.60;1459.20;;;;;;5115213;28;20373;-77
2022/06/15 12:35:41;;;;;;;4.32;2.25;;;794.00;1433.60;;;;;;5113951;28;20023;-78
2022/06/15 12:38:25;;;;;;;5.55;2.53;;;794.30;1459.20;;;;;;5114259;28;20024;-77
2022/06/15 12:41:00;;;;;;;4.15;1.90;;;794.10;1459.20;;;;;;5114485;28;20055;-77
2022/06/15 12:43:29;;;;;;;7.78;3.97;;;794.40;1433.60;;;;;;5114831;28;20026;-76
2022/06/15 12:46:04;;;;;;;4.07;2.15;;;794.40;1433.60;;;;;;5115498;28;20069;-77
2022/06/15 12:49:05;;;;;;;6.03;2.67;;;819.30;1433.60;;;;;;5114185;28;20024;-77
2022/06/15 12:51:42;;;;;;;4.78;2.35;;;819.30;1408.00;;;;;;5015805;28;20052;-77
2022/06/15 12:54:27;;;;;;;4.05;2.20;;;819.30;1408.00;;;;;;5099546;28;20039;-77
2022/06/15 12:57:13;;;;;;;4.65;3.13;;;819.30;1433.60;;;;;;5115092;28;20477;-76
2022/06/15 13:00:13;;;;;;;4.00;2.38;;;819.50;1408.00;;;;;;5113839;28;20027;-79
2022/06/15 13:02:50;;;;;;;4.68;2.78;;;819.30;1408.00;;;;;;5114371;28;20032;-80
2022/06/15 13:05:31;;;;;;;6.13;2.28;;;819.30;1433.60;;;;;;5114299;28;20023;-80
2022/06/15 13:08:25;;;;;;;8.70;2.17;;;819.80;1433.60;;;;;;5113997;28;20092;-80